createdAt,value
2022-07-30T00:02:12.931Z,64.21
2022-07-30T00:04:42.299Z,63.98
2022-07-30T00:07:11.231Z,65.11
2022-07-30T00:09:39.350Z,65.53
2022-07-30T00:12:08.021Z,66.66
2022-07-30T00:14:36.959Z,67.12
2022-07-30T00:17:05.946Z,67.29
2022-07-30T00:19:35.536Z,67.13
2022-07-30T00:22:05.485Z,67.67
2022-07-30T00:24:33.574Z,67.77
2022-07-30T00:27:01.825Z,67.92
2022-07-30T00:29:30.941Z,68.05
2022-07-30T00:31:59.809Z,68.80
2022-07-30T00:34:27.917Z,69.21
2022-07-30T00:36:55.947Z,69.71
2022-07-30T00:39:25.354Z,69.67
2022-07-30T00:41:58.852Z,69.92
2022-07-30T00:44:27.496Z,70.40
2022-07-30T00:46:56.178Z,70.44
2022-07-30T00:49:24.944Z,70.09
2022-07-30T00:51:53.418Z,71.28
2022-07-30T00:54:22.315Z,70.80
2022-07-30T00:56:51.955Z,71.85
2022-07-30T00:59:19.959Z,72.43
2022-07-30T01:01:48.190Z,72.21
2022-07-30T01:04:16.246Z,72.24
2022-07-30T01:06:44.350Z,72.70
2022-07-30T01:09:12.413Z,73.14
2022-07-30T01:11:42.297Z,73.64
2022-07-30T01:14:11.697Z,74.43
2022-07-30T01:16:42.931Z,75.37
2022-07-30T01:19:34.649Z,74.42
2022-07-30T01:22:11.876Z,75.19
2022-07-30T01:24:44.280Z,75.60
2022-07-30T01:27:19.638Z,75.62
2022-07-30T01:29:50.061Z,75.09
2022-07-30T01:32:20.890Z,75.62
2022-07-30T01:34:51.024Z,75.93
2022-07-30T01:37:20.394Z,76.12
2022-07-30T01:39:49.872Z,76.51
2022-07-30T01:42:21.683Z,76.65
2022-07-30T01:44:51.080Z,76.98
2022-07-30T01:47:21.117Z,77.38
2022-07-30T01:49:50.970Z,77.85
2022-07-30T01:52:19.867Z,80.19
2022-07-30T01:54:51.587Z,80.95
2022-07-30T01:57:22.537Z,81.75
2022-07-30T01:59:56.620Z,81.74
2022-07-30T02:02:24.837Z,82.72
2022-07-30T02:04:52.894Z,82.99
2022-07-30T02:07:26.010Z,83.29
2022-07-30T02:09:59.442Z,83.41
2022-07-30T02:12:29.779Z,82.85
2022-07-30T02:15:12.031Z,82.51
2022-07-30T02:17:45.103Z,81.04
2022-07-30T02:20:15.706Z,79.71
2022-07-30T02:22:47.640Z,79.72
2022-07-30T02:25:21.446Z,80.00
2022-07-30T02:27:55.068Z,80.34
2022-07-30T02:30:24.529Z,80.69
2022-07-30T02:32:52.800Z,81.35
2022-07-30T02:35:25.059Z,81.79
2022-07-30T02:37:55.706Z,82.50
2022-07-30T02:40:25.161Z,83.94
2022-07-30T02:42:55.458Z,83.71
2022-07-30T02:45:25.640Z,83.94
2022-07-30T02:47:57.448Z,84.50
2022-07-30T02:50:27.131Z,84.45
2022-07-30T02:52:56.211Z,84.52
2022-07-30T02:55:25.557Z,85.18
2022-07-30T02:57:56.407Z,85.70
2022-07-30T03:00:25.521Z,86.87
2022-07-30T03:02:56.677Z,85.52
2022-07-30T03:05:25.918Z,85.21
2022-07-30T03:07:55.369Z,85.51
2022-07-30T03:10:23.985Z,86.16
2022-07-30T03:12:52.658Z,86.03
2022-07-30T03:15:22.237Z,85.95
2022-07-30T03:17:53.681Z,86.45
2022-07-30T03:20:28.573Z,88.74
2022-07-30T03:22:59.746Z,87.57
2022-07-30T03:25:29.773Z,87.41
2022-07-30T03:28:00.514Z,87.80
2022-07-30T03:30:30.984Z,88.17
2022-07-30T03:32:59.371Z,88.61
2022-07-30T03:35:31.278Z,88.61
2022-07-30T03:38:01.175Z,88.65
2022-07-30T03:40:30.597Z,89.03
2022-07-30T03:42:59.544Z,89.42
2022-07-30T03:45:29.259Z,89.85
2022-07-30T03:47:58.626Z,90.13
2022-07-30T03:50:27.214Z,90.02
2022-07-30T03:52:55.616Z,89.41
2022-07-30T03:55:24.385Z,89.29
2022-07-30T03:57:52.581Z,89.75
2022-07-30T04:00:20.717Z,89.88
2022-07-30T04:02:50.455Z,89.97
2022-07-30T04:05:18.558Z,89.75
2022-07-30T04:07:47.742Z,90.14
2022-07-30T04:10:16.655Z,90.39
2022-07-30T04:12:44.758Z,91.07
2022-07-30T04:16:37.361Z,90.31
2022-07-30T04:18:05.751Z,90.07
2022-07-30T04:20:39.396Z,90.07
2022-07-30T04:23:08.373Z,89.13
2022-07-30T04:25:36.480Z,88.72
2022-07-30T04:28:05.862Z,87.76
2022-07-30T04:30:35.061Z,86.99
2022-07-30T04:33:05.119Z,86.70
2022-07-30T04:35:51.312Z,85.66
2022-07-30T04:38:21.113Z,85.01
2022-07-30T04:40:49.530Z,85.10
2022-07-30T04:43:18.418Z,84.64
2022-07-30T04:45:46.834Z,84.39
2022-07-30T04:48:16.367Z,83.37
2022-07-30T04:50:48.096Z,83.04
2022-07-30T04:53:17.045Z,81.78
2022-07-30T04:55:49.994Z,82.50
2022-07-30T04:58:21.964Z,82.34
2022-07-30T05:00:51.903Z,81.92
2022-07-30T05:03:23.278Z,81.67
2022-07-30T05:05:57.182Z,81.14
2022-07-30T05:08:26.246Z,81.02
2022-07-30T05:10:54.338Z,80.51
2022-07-30T05:13:22.488Z,78.87
2022-07-30T05:15:55.764Z,79.79
2022-07-30T05:18:25.204Z,79.35
2022-07-30T05:20:53.282Z,79.76
2022-07-30T05:23:21.315Z,78.38
2022-07-30T05:25:49.357Z,77.62
2022-07-30T05:28:17.376Z,79.20
2022-07-30T05:30:45.402Z,76.76
2022-07-30T05:33:15.658Z,76.28
2022-07-30T05:35:45.527Z,75.70
2022-07-30T05:38:13.688Z,75.02
2022-07-30T05:40:41.899Z,74.65
2022-07-30T05:43:10.218Z,74.07
2022-07-30T05:45:38.229Z,71.88
2022-07-30T05:48:06.830Z,71.02
2022-07-30T05:50:34.981Z,72.47
2022-07-30T05:53:04.410Z,72.95
2022-07-30T05:55:32.537Z,71.40
2022-07-30T05:58:04.413Z,71.97
2022-07-30T06:00:34.193Z,68.99
2022-07-30T06:03:02.233Z,69.10
2022-07-30T06:05:32.608Z,67.88
2022-07-30T06:08:00.711Z,67.23
2022-07-30T06:10:30.175Z,66.39
2022-07-30T06:12:58.437Z,67.10
2022-07-30T06:15:26.643Z,66.53
2022-07-30T06:17:58.268Z,65.28
2022-07-30T06:20:30.337Z,64.60
2022-07-30T06:22:58.395Z,64.43
2022-07-30T06:25:26.415Z,65.03
2022-07-30T06:27:55.790Z,63.92
2022-07-30T06:30:30.544Z,63.16
2022-07-30T06:32:59.554Z,62.58
2022-07-30T06:35:27.582Z,57.80
2022-07-30T06:38:06.104Z,59.75
2022-07-30T06:40:35.579Z,58.96
2022-07-30T06:43:05.275Z,57.98
2022-07-30T06:45:33.294Z,56.36
2022-07-30T06:48:01.651Z,56.51
2022-07-30T06:50:29.935Z,56.28
2022-07-30T06:52:57.985Z,56.91
2022-07-30T06:55:25.990Z,55.25
2022-07-30T06:57:54.017Z,56.28
2022-07-30T07:00:23.439Z,51.61
2022-07-30T07:02:51.547Z,53.80
2022-07-30T07:05:20.650Z,54.49
2022-07-30T07:07:58.262Z,52.21
2022-07-30T07:10:27.653Z,51.05
2022-07-30T07:12:55.758Z,51.21
2022-07-30T07:15:36.407Z,46.93
2022-07-30T07:18:06.610Z,47.21
2022-07-30T07:20:34.800Z,49.04
2022-07-30T07:23:09.134Z,47.39
2022-07-30T07:25:40.335Z,47.75
2022-07-30T07:28:12.459Z,47.18
2022-07-30T07:30:43.464Z,47.29
2022-07-30T07:33:12.246Z,45.76
2022-07-30T07:35:49.547Z,43.86
2022-07-30T07:38:18.918Z,43.95
2022-07-30T07:40:47.515Z,43.90
2022-07-30T07:43:15.938Z,43.34
2022-07-30T07:45:46.436Z,43.16
2022-07-30T07:48:14.830Z,41.84
2022-07-30T07:50:42.913Z,41.08
2022-07-30T07:53:10.934Z,41.65
2022-07-30T07:55:38.919Z,41.15
2022-07-30T07:58:07.077Z,39.39
2022-07-30T08:00:36.157Z,39.94
2022-07-30T08:03:05.563Z,38.12
2022-07-30T08:06:02.061Z,38.64
2022-07-30T08:08:22.142Z,39.31
2022-07-30T08:10:50.199Z,39.00
2022-07-30T08:13:52.432Z,38.54
2022-07-30T08:16:08.294Z,37.12
2022-07-30T08:18:42.003Z,37.36
2022-07-30T08:21:10.108Z,37.72
2022-07-30T08:23:42.408Z,37.47
2022-07-30T08:26:10.760Z,35.26
2022-07-30T08:28:38.777Z,34.87
2022-07-30T08:31:06.811Z,35.39
2022-07-30T08:33:35.298Z,36.54
2022-07-30T08:36:09.457Z,36.58
2022-07-30T08:38:38.250Z,37.20
2022-07-30T08:41:06.664Z,36.28
2022-07-30T08:43:36.514Z,36.29
2022-07-30T08:46:08.518Z,33.93
2022-07-30T08:48:37.402Z,35.22
2022-07-30T08:51:07.145Z,34.04
2022-07-30T08:53:35.933Z,34.26
2022-07-30T08:56:05.250Z,33.69
2022-07-30T08:58:35.428Z,32.92
2022-07-30T09:01:04.101Z,33.01
2022-07-30T09:03:32.755Z,33.29
2022-07-30T09:06:02.127Z,34.01
2022-07-30T09:08:31.943Z,34.58
2022-07-30T09:11:00.081Z,34.69
2022-07-30T09:13:29.947Z,33.51
2022-07-30T09:15:58.668Z,33.27
2022-07-30T09:18:32.188Z,32.71
2022-07-30T09:21:01.851Z,31.25
2022-07-30T09:23:31.419Z,30.56
2022-07-30T09:26:01.018Z,31.99
2022-07-30T09:28:31.719Z,32.20
2022-07-30T09:31:00.103Z,32.26
2022-07-30T09:33:37.086Z,31.69
2022-07-30T09:36:07.639Z,31.29
2022-07-30T09:38:51.701Z,31.97
2022-07-30T09:41:41.467Z,30.57
2022-07-30T09:44:09.647Z,30.33
2022-07-30T09:46:47.690Z,30.01
2022-07-30T09:49:17.910Z,30.50
2022-07-30T09:52:05.280Z,29.47
2022-07-30T09:54:51.720Z,28.97
2022-07-30T09:57:26.063Z,28.32
2022-07-30T09:59:57.476Z,28.74
2022-07-30T10:02:33.007Z,28.45
2022-07-30T10:05:24.510Z,28.97
2022-07-30T10:07:54.595Z,28.83
2022-07-30T10:10:26.161Z,28.64
2022-07-30T10:12:58.225Z,29.31
2022-07-30T10:15:29.663Z,28.72
2022-07-30T10:17:58.023Z,28.82
2022-07-30T10:20:26.971Z,27.48
2022-07-30T10:22:56.390Z,27.72
2022-07-30T10:25:28.436Z,29.38
2022-07-30T10:27:57.758Z,28.17
2022-07-30T10:30:29.271Z,28.18
2022-07-30T10:32:59.969Z,28.01
2022-07-30T10:35:34.379Z,30.05
2022-07-30T10:38:13.744Z,28.36
2022-07-30T10:40:51.506Z,29.04
2022-07-30T10:43:40.630Z,31.39
2022-07-30T10:46:19.868Z,28.73
2022-07-30T10:48:50.786Z,26.95
2022-07-30T10:51:34.591Z,26.60
2022-07-30T10:54:03.044Z,26.71
2022-07-30T10:56:32.509Z,26.37
2022-07-30T10:59:03.328Z,26.50
2022-07-30T11:02:10.036Z,25.87
2022-07-30T11:04:38.492Z,25.86
2022-07-30T11:07:30.286Z,26.10
2022-07-30T11:10:08.673Z,27.11
2022-07-30T11:12:57.569Z,27.92
2022-07-30T11:15:45.581Z,27.58
2022-07-30T11:18:16.486Z,27.41
2022-07-30T11:20:48.740Z,28.92
2022-07-30T11:23:37.186Z,28.79
2022-07-30T11:26:07.440Z,27.77
2022-07-30T11:28:39.317Z,27.34
2022-07-30T11:31:55.855Z,26.35
2022-07-30T11:34:30.795Z,26.49
2022-07-30T11:37:19.303Z,26.26
2022-07-30T11:40:11.154Z,25.96
2022-07-30T11:42:41.664Z,26.83
2022-07-30T11:45:29.852Z,26.19
2022-07-30T11:48:03.967Z,28.48
2022-07-30T11:50:35.205Z,28.31
2022-07-30T11:53:05.564Z,27.24
2022-07-30T11:55:35.458Z,27.79
2022-07-30T11:58:05.930Z,28.23
2022-07-30T12:00:38.930Z,26.52
2022-07-30T12:03:14.583Z,27.31
2022-07-30T12:05:44.137Z,28.03
2022-07-30T12:08:35.505Z,27.60
2022-07-30T12:11:02.495Z,27.54
2022-07-30T12:13:44.822Z,27.48
2022-07-30T12:16:17.798Z,27.87
2022-07-30T12:18:46.908Z,28.74
2022-07-30T12:21:16.891Z,27.26
2022-07-30T12:23:54.482Z,27.54
2022-07-30T12:26:24.701Z,28.29
2022-07-30T12:28:55.695Z,28.33
2022-07-30T12:31:25.445Z,30.38
2022-07-30T12:33:53.620Z,27.26
2022-07-30T12:36:32.600Z,27.10
2022-07-30T12:39:02.259Z,27.30
2022-07-30T12:41:43.899Z,27.50
2022-07-30T12:44:12.073Z,27.36
2022-07-30T12:46:42.461Z,26.48
2022-07-30T12:49:22.234Z,25.74
2022-07-30T12:52:00.123Z,27.47
2022-07-30T12:54:29.137Z,26.76
2022-07-30T12:56:59.614Z,26.57
2022-07-30T12:59:28.913Z,26.34
2022-07-30T13:02:00.638Z,26.56
2022-07-30T13:04:29.199Z,26.71
2022-07-30T13:07:08.303Z,27.44
2022-07-30T13:09:37.286Z,25.99
2022-07-30T13:12:05.926Z,26.85
2022-07-30T13:14:34.640Z,26.93
2022-07-30T13:17:04.849Z,27.44
2022-07-30T13:19:33.512Z,25.56
2022-07-30T13:22:01.552Z,25.76
2022-07-30T13:24:29.550Z,26.64
2022-07-30T13:26:57.769Z,25.77
2022-07-30T13:29:26.140Z,25.97
2022-07-30T13:31:54.465Z,25.93
2022-07-30T13:34:24.277Z,25.38
2022-07-30T13:36:52.441Z,24.98
2022-07-30T13:39:20.521Z,25.25
2022-07-30T13:41:48.514Z,24.97
2022-07-30T13:44:17.787Z,25.47
2022-07-30T13:46:45.790Z,24.96
2022-07-30T13:49:13.878Z,25.02
2022-07-30T13:51:43.333Z,25.43
2022-07-30T13:54:13.912Z,25.20
2022-07-30T13:56:42.299Z,25.23
2022-07-30T13:59:10.668Z,24.72
2022-07-30T14:01:39.316Z,24.71
2022-07-30T14:04:08.647Z,24.88
2022-07-30T14:06:36.855Z,24.89
2022-07-30T14:09:06.350Z,24.95
2022-07-30T14:11:34.378Z,25.10
2022-07-30T14:14:02.390Z,25.24
2022-07-30T14:16:46.074Z,26.14
2022-07-30T14:19:23.081Z,25.19
2022-07-30T14:21:53.194Z,26.20
2022-07-30T14:24:23.432Z,25.62
2022-07-30T14:26:57.377Z,25.92
2022-07-30T14:29:26.679Z,25.06
2022-07-30T14:31:55.068Z,24.85
2022-07-30T14:34:23.080Z,26.60
2022-07-30T14:36:51.104Z,25.71
2022-07-30T14:39:20.771Z,25.52
2022-07-30T14:41:53.151Z,25.85
2022-07-30T14:44:24.121Z,25.28
2022-07-30T14:46:53.054Z,25.45
2022-07-30T14:49:22.833Z,27.26
2022-07-30T14:51:52.449Z,26.63
2022-07-30T14:54:21.020Z,27.38
2022-07-30T14:56:54.866Z,26.76
2022-07-30T14:59:26.679Z,26.71
2022-07-30T15:01:55.356Z,26.26
2022-07-30T15:04:24.358Z,26.55
2022-07-30T15:06:52.568Z,26.09
2022-07-30T15:09:20.971Z,26.18
2022-07-30T15:12:08.347Z,26.32
2022-07-30T15:14:37.409Z,26.36
2022-07-30T15:17:06.154Z,26.71
2022-07-30T15:19:34.506Z,27.03
2022-07-30T15:22:03.506Z,27.50
2022-07-30T15:24:32.454Z,27.72
2022-07-30T15:27:01.894Z,28.10
2022-07-30T15:29:30.951Z,28.16
2022-07-30T15:32:01.229Z,29.59
2022-07-30T15:34:34.368Z,29.27
2022-07-30T15:37:03.166Z,28.68
2022-07-30T15:39:33.099Z,29.29
2022-07-30T15:42:03.317Z,29.55
2022-07-30T15:44:31.679Z,29.82
2022-07-30T15:47:00.581Z,29.94
2022-07-30T15:49:29.513Z,30.56
2022-07-30T15:52:00.242Z,31.70
2022-07-30T15:54:28.734Z,32.21
2022-07-30T15:57:01.337Z,33.23
2022-07-30T15:59:31.387Z,33.60
2022-07-30T16:01:59.710Z,33.83
2022-07-30T16:04:31.555Z,34.45
2022-07-30T16:07:00.787Z,35.65
2022-07-30T16:09:29.127Z,36.32
2022-07-30T16:11:57.314Z,37.07
2022-07-30T16:14:26.459Z,35.42
2022-07-30T16:16:56.042Z,36.16
2022-07-30T16:19:24.159Z,37.03
2022-07-30T16:21:52.348Z,38.27
2022-07-30T16:24:20.360Z,38.36
2022-07-30T16:26:48.403Z,38.89
2022-07-30T16:29:16.440Z,38.97
2022-07-30T16:31:44.812Z,39.49
2022-07-30T16:34:14.314Z,39.29
2022-07-30T16:36:42.386Z,39.85
2022-07-30T16:39:10.882Z,39.68
2022-07-30T16:41:38.941Z,39.62
2022-07-30T16:44:07.110Z,39.70
2022-07-30T16:46:35.163Z,40.47
2022-07-30T16:49:03.278Z,40.27
2022-07-30T16:51:33.150Z,40.32
2022-07-30T16:54:01.234Z,40.12
2022-07-30T16:56:29.227Z,40.67
2022-07-30T16:58:57.225Z,40.22
2022-07-30T17:01:25.371Z,40.21
2022-07-30T17:03:53.457Z,40.00
2022-07-30T17:06:21.483Z,40.59
2022-07-30T17:08:50.874Z,40.26
2022-07-30T17:11:46.412Z,40.73
2022-07-30T17:14:07.599Z,41.25
2022-07-30T17:16:35.666Z,41.64
2022-07-30T17:19:09.359Z,42.39
2022-07-30T17:21:39.114Z,43.02
2022-07-30T17:24:13.618Z,42.86
2022-07-30T17:26:43.437Z,42.32
2022-07-30T17:29:14.805Z,42.62
2022-07-30T17:31:44.438Z,42.77
2022-07-30T17:34:14.284Z,43.42
2022-07-30T17:36:51.697Z,43.66
2022-07-30T17:40:26.446Z,44.03
2022-07-30T17:42:11.591Z,44.01
2022-07-30T17:44:40.856Z,45.48
2022-07-30T17:47:14.674Z,45.51
2022-07-30T17:49:44.460Z,45.94
2022-07-30T17:52:12.544Z,45.51
2022-07-30T17:54:41.956Z,45.63
2022-07-30T17:57:10.780Z,45.49
2022-07-30T17:59:38.918Z,44.56
2022-07-30T18:02:07.242Z,44.26
2022-07-30T18:04:35.507Z,44.11
2022-07-30T18:07:03.676Z,43.48
2022-07-30T18:09:37.787Z,44.24
2022-07-30T18:12:09.811Z,44.36
2022-07-30T18:14:37.912Z,44.64
2022-07-30T18:17:08.229Z,45.17
2022-07-30T18:19:39.340Z,44.87
2022-07-30T18:22:09.023Z,45.24
2022-07-30T18:24:40.108Z,45.55
2022-07-30T18:27:11.652Z,45.55
2022-07-30T18:29:39.934Z,45.43
2022-07-30T18:32:08.589Z,45.28
2022-07-30T18:34:36.634Z,44.96
2022-07-30T18:37:04.870Z,44.80
2022-07-30T18:39:32.903Z,45.20
2022-07-30T18:42:02.236Z,45.44
2022-07-30T18:44:32.456Z,45.62
2022-07-30T18:47:00.643Z,44.96
2022-07-30T18:49:37.356Z,44.90
2022-07-30T18:52:07.781Z,44.45
2022-07-30T18:54:38.154Z,44.51
2022-07-30T18:57:10.049Z,44.99
2022-07-30T18:59:43.015Z,44.99
2022-07-30T19:02:11.097Z,44.81
2022-07-30T19:04:39.343Z,44.82
2022-07-30T19:07:07.631Z,44.08
2022-07-30T19:09:35.737Z,44.56
2022-07-30T19:12:04.133Z,44.61
2022-07-30T19:14:32.457Z,44.33
2022-07-30T19:17:01.848Z,44.20
2022-07-30T19:19:30.634Z,44.15
2022-07-30T19:21:58.911Z,44.25
2022-07-30T19:24:27.641Z,44.30
2022-07-30T19:26:56.244Z,44.36
2022-07-30T19:29:24.308Z,44.82
2022-07-30T19:31:52.383Z,45.04
2022-07-30T19:34:21.857Z,44.70
2022-07-30T19:36:49.899Z,44.99
2022-07-30T19:39:21.841Z,45.08
2022-07-30T19:41:51.095Z,45.03
2022-07-30T19:44:19.666Z,45.58
2022-07-30T19:46:51.430Z,45.19
2022-07-30T19:49:21.638Z,45.38
2022-07-30T19:52:10.832Z,45.60
2022-07-30T19:54:38.309Z,45.75
2022-07-30T19:57:06.358Z,46.28
2022-07-30T19:59:45.281Z,47.34
2022-07-30T20:02:15.732Z,49.10
2022-07-30T20:04:45.233Z,50.53
2022-07-30T20:07:13.792Z,51.34
2022-07-30T20:09:44.643Z,51.45
2022-07-30T20:12:17.120Z,50.12
2022-07-30T20:14:45.285Z,49.91
2022-07-30T20:17:13.482Z,49.98
2022-07-30T20:19:48.430Z,51.49
2022-07-30T20:22:17.021Z,51.61
2022-07-30T20:24:45.405Z,51.16
2022-07-30T20:27:35.534Z,50.04
2022-07-30T20:30:02.559Z,50.48
2022-07-30T20:32:30.610Z,52.06
2022-07-30T20:35:00.006Z,55.88
2022-07-30T20:37:28.008Z,59.34
2022-07-30T20:39:56.164Z,61.06
2022-07-30T20:42:24.609Z,60.14
2022-07-30T20:44:56.935Z,60.10
2022-07-30T20:47:34.243Z,61.15
2022-07-30T20:50:10.341Z,61.23
2022-07-30T20:52:40.425Z,60.27
2022-07-30T20:55:09.632Z,61.55
2022-07-30T20:57:56.849Z,59.87
2022-07-30T21:00:29.365Z,59.70
2022-07-30T21:02:58.288Z,60.54
2022-07-30T21:05:32.840Z,60.06
2022-07-30T21:08:00.907Z,59.79
2022-07-30T21:10:29.006Z,60.16
2022-07-30T21:13:03.089Z,60.37
2022-07-30T21:15:32.970Z,60.40
2022-07-30T21:18:02.104Z,59.18
2022-07-30T21:20:33.253Z,59.80
2022-07-30T21:23:05.777Z,60.03
2022-07-30T21:26:00.371Z,59.76
2022-07-30T21:28:27.540Z,60.36
2022-07-30T21:30:57.066Z,60.51
2022-07-30T21:33:30.961Z,59.78
2022-07-30T21:36:01.171Z,60.37
2022-07-30T21:38:30.449Z,60.62
2022-07-30T21:41:00.505Z,60.26
2022-07-30T21:43:30.522Z,60.73
2022-07-30T21:46:03.829Z,61.66
2022-07-30T21:48:34.686Z,61.34
2022-07-30T21:51:04.490Z,64.01
2022-07-30T21:53:45.048Z,64.46
2022-07-30T21:56:14.947Z,63.52
2022-07-30T21:58:44.108Z,64.44
2022-07-30T22:01:16.434Z,64.54
2022-07-30T22:04:01.742Z,65.96
2022-07-30T22:06:36.621Z,66.21
2022-07-30T22:09:19.170Z,65.57
2022-07-30T22:11:55.776Z,65.57
2022-07-30T22:14:25.613Z,65.46
2022-07-30T22:16:53.911Z,65.14
2022-07-30T22:19:22.702Z,65.60
2022-07-30T22:21:52.227Z,65.89
2022-07-30T22:24:29.186Z,65.94
2022-07-30T22:27:00.082Z,66.47
2022-07-30T22:29:34.598Z,66.84
2022-07-30T22:32:04.015Z,65.98
2022-07-30T22:34:32.337Z,66.04
2022-07-30T22:37:01.718Z,66.71
2022-07-30T22:39:32.133Z,66.35
2022-07-30T22:42:18.780Z,66.68
2022-07-30T22:44:48.190Z,66.79
2022-07-30T22:47:20.979Z,66.95
2022-07-30T22:49:54.874Z,66.77
2022-07-30T22:52:30.763Z,66.95
2022-07-30T22:55:09.342Z,67.04
2022-07-30T22:57:40.111Z,67.03
2022-07-30T23:00:12.406Z,66.93
2022-07-30T23:02:43.247Z,67.59
2022-07-30T23:05:11.848Z,67.60
2022-07-30T23:07:41.767Z,67.60
2022-07-30T23:10:17.835Z,67.58
2022-07-30T23:12:49.117Z,67.82
2022-07-30T23:15:17.266Z,68.14
2022-07-30T23:17:45.445Z,68.04
2022-07-30T23:20:15.895Z,68.84
2022-07-30T23:22:45.307Z,68.94
2022-07-30T23:25:15.550Z,69.51
2022-07-30T23:27:43.974Z,69.60
2022-07-30T23:30:13.089Z,70.01
2022-07-30T23:32:41.199Z,70.17
2022-07-30T23:35:11.084Z,70.29
2022-07-30T23:37:48.997Z,70.49
2022-07-30T23:40:19.641Z,70.55
2022-07-30T23:42:47.838Z,70.86
2022-07-30T23:45:16.026Z,70.90
2022-07-30T23:48:00.763Z,71.06
2022-07-30T23:52:59.932Z,71.76
2022-07-30T23:55:29.448Z,71.58
2022-07-30T23:57:58.022Z,71.81
